KSAR/SAR METAR and TAF weather

Enter ICAO airport designator
Station Type Date Time Source
KSAR METAR 2019/04/25 16:15 UTC NOAA

KSAR 251615Z AUTO 00000KT 1 3/4SM RA BKN004 BKN024 OVC048 17/17 A2974 RMK AO2 VIS 3/4V5 P0016 T01670167


Station Type Date Time Source
KSAR Decoded METAR 2019/04/25 16:15 UTC NOAA

Sparta, Sparta Community-Hunter Field Airport, IL, United States (KSAR) 38-08-56N 089-41-55W
Apr 25, 2019 - 12:15 PM EDT / 2019.04.25 1615 UTC
Wind: Calm:0
Visibility: 1 3/4 mile(s):0
Sky conditions: overcast
Weather: rain
Precipitation last hour: 0.16 inches
Temperature: 62.1 F (16.7 C)
Dew Point: 62.1 F (16.7 C)
Relative Humidity: 100%
Pressure (altimeter): 29.74 in. Hg (1007 hPa)
ob: KSAR 251615Z AUTO 00000KT 1 3/4SM RA BKN004 BKN024 OVC048 17/17 A2974 RMK AO2 VIS 3/4V5 P0016 T01670167
cycle: 16

Station Type Date Time Source
KSAR TAF UTC NOAA

Error!

Example: see airport list